sensor_id;sensor_type;location;lat;lon;timestamp;P1;durP1;ratioP1;P2;durP2;ratioP2
1467;SDS011;727;48.892;9.544;2023-04-15T00:01:11;7.47;;;4.28;;
1467;SDS011;727;48.892;9.544;2023-04-15T00:03:43;3.85;;;3.30;;
1467;SDS011;727;48.892;9.544;2023-04-15T00:06:11;4.13;;;3.63;;
1467;SDS011;727;48.892;9.544;2023-04-15T00:08:38;3.55;;;3.35;;
1467;SDS011;727;48.892;9.544;2023-04-15T00:11:05;4.47;;;3.97;;
1467;SDS011;727;48.892;9.544;2023-04-15T00:13:32;5.70;;;3.85;;
1467;SDS011;727;48.892;9.544;2023-04-15T00:15:59;7.38;;;5.05;;
1467;SDS011;727;48.892;9.544;2023-04-15T00:18:26;8.65;;;5.50;;
1467;SDS011;727;48.892;9.544;2023-04-15T00:20:53;8.18;;;5.63;;
1467;SDS011;727;48.892;9.544;2023-04-15T00:23:21;4.45;;;4.05;;
1467;SDS011;727;48.892;9.544;2023-04-15T00:25:48;9.45;;;6.43;;
1467;SDS011;727;48.892;9.544;2023-04-15T00:28:15;5.30;;;4.80;;
1467;SDS011;727;48.892;9.544;2023-04-15T00:30:42;6.15;;;4.30;;
1467;SDS011;727;48.892;9.544;2023-04-15T00:33:09;4.85;;;4.22;;
1467;SDS011;727;48.892;9.544;2023-04-15T00:35:36;4.75;;;4.18;;
1467;SDS011;727;48.892;9.544;2023-04-15T00:38:03;4.53;;;3.45;;
1467;SDS011;727;48.892;9.544;2023-04-15T00:40:32;5.35;;;4.82;;
1467;SDS011;727;48.892;9.544;2023-04-15T00:42:59;10.73;;;3.78;;
1467;SDS011;727;48.892;9.544;2023-04-15T00:45:26;4.28;;;3.97;;
1467;SDS011;727;48.892;9.544;2023-04-15T00:47:53;5.65;;;3.92;;
1467;SDS011;727;48.892;9.544;2023-04-15T00:50:21;6.57;;;3.85;;
1467;SDS011;727;48.892;9.544;2023-04-15T00:52:47;4.75;;;3.60;;
1467;SDS011;727;48.892;9.544;2023-04-15T00:55:14;5.07;;;3.28;;
1467;SDS011;727;48.892;9.544;2023-04-15T00:57:43;4.45;;;4.05;;
1467;SDS011;727;48.892;9.544;2023-04-15T01:00:10;4.13;;;3.83;;
1467;SDS011;727;48.892;9.544;2023-04-15T01:02:37;4.28;;;3.35;;
1467;SDS011;727;48.892;9.544;2023-04-15T01:05:04;5.20;;;4.72;;
1467;SDS011;727;48.892;9.544;2023-04-15T01:07:31;3.88;;;3.58;;
1467;SDS011;727;48.892;9.544;2023-04-15T01:09:58;5.63;;;5.10;;
1467;SDS011;727;48.892;9.544;2023-04-15T01:12:25;15.65;;;3.80;;
1467;SDS011;727;48.892;9.544;2023-04-15T01:14:54;4.88;;;3.28;;
1467;SDS011;727;48.892;9.544;2023-04-15T01:17:21;8.70;;;3.95;;
1467;SDS011;727;48.892;9.544;2023-04-15T01:19:49;5.82;;;3.65;;
1467;SDS011;727;48.892;9.544;2023-04-15T01:22:16;3.97;;;3.55;;
1467;SDS011;727;48.892;9.544;2023-04-15T01:24:43;4.90;;;3.90;;
1467;SDS011;727;48.892;9.544;2023-04-15T01:27:20;4.53;;;3.80;;
1467;SDS011;727;48.892;9.544;2023-04-15T01:29:48;4.55;;;3.95;;
1467;SDS011;727;48.892;9.544;2023-04-15T01:32:14;5.55;;;4.05;;
1467;SDS011;727;48.892;9.544;2023-04-15T01:34:41;6.95;;;4.10;;
1467;SDS011;727;48.892;9.544;2023-04-15T01:37:08;4.50;;;4.03;;
1467;SDS011;727;48.892;9.544;2023-04-15T01:39:35;5.45;;;3.47;;
1467;SDS011;727;48.892;9.544;2023-04-15T01:42:01;4.68;;;3.65;;
1467;SDS011;727;48.892;9.544;2023-04-15T01:44:30;3.70;;;3.42;;
1467;SDS011;727;48.892;9.544;2023-04-15T01:46:57;6.45;;;3.90;;
1467;SDS011;727;48.892;9.544;2023-04-15T01:49:24;4.07;;;3.72;;
1467;SDS011;727;48.892;9.544;2023-04-15T01:51:51;6.38;;;4.15;;
1467;SDS011;727;48.892;9.544;2023-04-15T01:54:18;7.07;;;4.22;;
1467;SDS011;727;48.892;9.544;2023-04-15T01:56:45;7.55;;;3.55;;
1467;SDS011;727;48.892;9.544;2023-04-15T01:59:12;3.58;;;2.97;;
1467;SDS011;727;48.892;9.544;2023-04-15T02:01:40;4.43;;;3.97;;
1467;SDS011;727;48.892;9.544;2023-04-15T02:04:07;5.00;;;3.90;;
1467;SDS011;727;48.892;9.544;2023-04-15T02:06:40;5.97;;;3.33;;
1467;SDS011;727;48.892;9.544;2023-04-15T02:09:07;4.80;;;3.40;;
1467;SDS011;727;48.892;9.544;2023-04-15T02:11:34;4.78;;;3.58;;
1467;SDS011;727;48.892;9.544;2023-04-15T02:14:01;4.70;;;4.18;;
1467;SDS011;727;48.892;9.544;2023-04-15T02:16:28;5.03;;;3.97;;
1467;SDS011;727;48.892;9.544;2023-04-15T02:18:57;4.88;;;3.60;;
1467;SDS011;727;48.892;9.544;2023-04-15T02:21:25;3.95;;;3.65;;
1467;SDS011;727;48.892;9.544;2023-04-15T02:23:51;4.05;;;3.75;;
1467;SDS011;727;48.892;9.544;2023-04-15T02:26:18;7.50;;;3.75;;
1467;SDS011;727;48.892;9.544;2023-04-15T02:28:46;4.70;;;3.42;;
1467;SDS011;727;48.892;9.544;2023-04-15T02:31:15;8.48;;;3.95;;
1467;SDS011;727;48.892;9.544;2023-04-15T02:33:42;3.95;;;3.55;;
1467;SDS011;727;48.892;9.544;2023-04-15T02:36:10;3.95;;;3.65;;
1467;SDS011;727;48.892;9.544;2023-04-15T02:38:37;4.93;;;4.03;;
1467;SDS011;727;48.892;9.544;2023-04-15T02:41:06;7.03;;;3.30;;
1467;SDS011;727;48.892;9.544;2023-04-15T02:43:34;4.90;;;3.45;;
1467;SDS011;727;48.892;9.544;2023-04-15T02:46:00;4.00;;;3.53;;
1467;SDS011;727;48.892;9.544;2023-04-15T02:48:27;5.70;;;3.88;;
1467;SDS011;727;48.892;9.544;2023-04-15T02:53:37;8.23;;;4.07;;
1467;SDS011;727;48.892;9.544;2023-04-15T02:56:05;4.30;;;3.65;;
1467;SDS011;727;48.892;9.544;2023-04-15T02:58:32;4.28;;;3.75;;
1467;SDS011;727;48.892;9.544;2023-04-15T03:01:00;4.35;;;3.88;;
1467;SDS011;727;48.892;9.544;2023-04-15T03:03:26;6.90;;;4.45;;
1467;SDS011;727;48.892;9.544;2023-04-15T03:05:53;5.18;;;4.70;;
1467;SDS011;727;48.892;9.544;2023-04-15T03:08:21;4.10;;;3.70;;
1467;SDS011;727;48.892;9.544;2023-04-15T03:10:48;5.03;;;3.45;;
1467;SDS011;727;48.892;9.544;2023-04-15T03:13:16;8.43;;;4.45;;
1467;SDS011;727;48.892;9.544;2023-04-15T03:15:45;4.65;;;4.25;;
1467;SDS011;727;48.892;9.544;2023-04-15T03:18:12;5.28;;;3.95;;
1467;SDS011;727;48.892;9.544;2023-04-15T03:20:39;4.10;;;3.75;;
1467;SDS011;727;48.892;9.544;2023-04-15T03:23:06;3.65;;;3.35;;
1467;SDS011;727;48.892;9.544;2023-04-15T03:25:34;4.28;;;3.53;;
1467;SDS011;727;48.892;9.544;2023-04-15T03:28:02;4.63;;;4.13;;
1467;SDS011;727;48.892;9.544;2023-04-15T03:30:29;4.13;;;3.72;;
1467;SDS011;727;48.892;9.544;2023-04-15T03:32:56;8.43;;;3.92;;
1467;SDS011;727;48.892;9.544;2023-04-15T03:35:22;4.85;;;4.43;;
1467;SDS011;727;48.892;9.544;2023-04-15T03:37:49;4.75;;;3.75;;
1467;SDS011;727;48.892;9.544;2023-04-15T03:40:16;4.70;;;3.88;;
1467;SDS011;727;48.892;9.544;2023-04-15T03:42:44;4.07;;;3.72;;
1467;SDS011;727;48.892;9.544;2023-04-15T03:45:11;4.60;;;4.20;;
1467;SDS011;727;48.892;9.544;2023-04-15T03:47:37;3.65;;;3.35;;
1467;SDS011;727;48.892;9.544;2023-04-15T03:50:04;4.72;;;3.85;;
1467;SDS011;727;48.892;9.544;2023-04-15T03:52:32;3.45;;;3.15;;
1467;SDS011;727;48.892;9.544;2023-04-15T03:54:59;3.72;;;3.42;;
1467;SDS011;727;48.892;9.544;2023-04-15T03:57:26;4.07;;;3.72;;
1467;SDS011;727;48.892;9.544;2023-04-15T03:59:54;5.00;;;3.70;;
1467;SDS011;727;48.892;9.544;2023-04-15T04:02:21;11.30;;;4.57;;
1467;SDS011;727;48.892;9.544;2023-04-15T04:04:48;5.43;;;4.95;;
1467;SDS011;727;48.892;9.544;2023-04-15T04:07:15;6.00;;;5.43;;
1467;SDS011;727;48.892;9.544;2023-04-15T04:09:41;4.82;;;4.35;;
1467;SDS011;727;48.892;9.544;2023-04-15T04:12:08;5.60;;;5.00;;
1467;SDS011;727;48.892;9.544;2023-04-15T04:14:35;5.28;;;4.78;;
1467;SDS011;727;48.892;9.544;2023-04-15T04:17:03;4.50;;;4.10;;
1467;SDS011;727;48.892;9.544;2023-04-15T04:19:30;4.75;;;4.25;;
1467;SDS011;727;48.892;9.544;2023-04-15T04:21:57;4.57;;;3.70;;
1467;SDS011;727;48.892;9.544;2023-04-15T04:24:24;4.45;;;3.88;;
1467;SDS011;727;48.892;9.544;2023-04-15T04:26:51;3.47;;;3.20;;
1467;SDS011;727;48.892;9.544;2023-04-15T04:29:17;4.75;;;4.05;;
1467;SDS011;727;48.892;9.544;2023-04-15T04:31:44;4.30;;;3.70;;
1467;SDS011;727;48.892;9.544;2023-04-15T04:34:14;6.28;;;5.78;;
1467;SDS011;727;48.892;9.544;2023-04-15T04:36:40;4.93;;;4.53;;
1467;SDS011;727;48.892;9.544;2023-04-15T04:39:07;4.97;;;4.40;;
1467;SDS011;727;48.892;9.544;2023-04-15T04:41:34;5.75;;;4.75;;
1467;SDS011;727;48.892;9.544;2023-04-15T04:44:01;4.75;;;4.35;;
1467;SDS011;727;48.892;9.544;2023-04-15T04:46:27;4.55;;;3.55;;
1467;SDS011;727;48.892;9.544;2023-04-15T04:48:54;7.03;;;3.83;;
1467;SDS011;727;48.892;9.544;2023-04-15T04:51:22;4.55;;;4.15;;
1467;SDS011;727;48.892;9.544;2023-04-15T04:53:50;4.15;;;3.75;;
1467;SDS011;727;48.892;9.544;2023-04-15T04:56:16;8.45;;;4.90;;
1467;SDS011;727;48.892;9.544;2023-04-15T04:58:43;4.38;;;3.90;;
1467;SDS011;727;48.892;9.544;2023-04-15T05:01:10;5.10;;;3.95;;
1467;SDS011;727;48.892;9.544;2023-04-15T05:03:37;5.07;;;4.68;;
1467;SDS011;727;48.892;9.544;2023-04-15T05:06:04;4.45;;;4.05;;
1467;SDS011;727;48.892;9.544;2023-04-15T05:08:34;7.88;;;4.05;;
1467;SDS011;727;48.892;9.544;2023-04-15T05:11:01;7.03;;;4.93;;
1467;SDS011;727;48.892;9.544;2023-04-15T05:13:27;4.90;;;3.92;;
1467;SDS011;727;48.892;9.544;2023-04-15T05:15:54;4.15;;;3.67;;
1467;SDS011;727;48.892;9.544;2023-04-15T05:18:21;4.82;;;3.97;;
1467;SDS011;727;48.892;9.544;2023-04-15T05:20:48;6.75;;;4.75;;
1467;SDS011;727;48.892;9.544;2023-04-15T05:23:15;13.10;;;7.38;;
1467;SDS011;727;48.892;9.544;2023-04-15T05:25:43;13.80;;;5.80;;
1467;SDS011;727;48.892;9.544;2023-04-15T05:28:10;5.05;;;4.55;;
1467;SDS011;727;48.892;9.544;2023-04-15T05:30:37;8.13;;;5.25;;
1467;SDS011;727;48.892;9.544;2023-04-15T05:33:04;9.50;;;4.88;;
1467;SDS011;727;48.892;9.544;2023-04-15T05:35:31;4.00;;;3.70;;
1467;SDS011;727;48.892;9.544;2023-04-15T05:37:58;4.10;;;3.75;;
1467;SDS011;727;48.892;9.544;2023-04-15T05:40:25;5.93;;;4.47;;
1467;SDS011;727;48.892;9.544;2023-04-15T05:42:53;4.70;;;4.40;;
1467;SDS011;727;48.892;9.544;2023-04-15T05:45:20;7.32;;;4.40;;
1467;SDS011;727;48.892;9.544;2023-04-15T05:47:47;5.72;;;5.32;;
1467;SDS011;727;48.892;9.544;2023-04-15T05:50:14;5.50;;;5.00;;
1467;SDS011;727;48.892;9.544;2023-04-15T05:52:41;4.72;;;4.22;;
1467;SDS011;727;48.892;9.544;2023-04-15T05:55:09;3.72;;;3.35;;
1467;SDS011;727;48.892;9.544;2023-04-15T05:57:36;4.20;;;3.80;;
1467;SDS011;727;48.892;9.544;2023-04-15T06:00:05;4.18;;;3.78;;
1467;SDS011;727;48.892;9.544;2023-04-15T06:02:32;5.13;;;4.18;;
1467;SDS011;727;48.892;9.544;2023-04-15T06:04:59;5.30;;;4.03;;
1467;SDS011;727;48.892;9.544;2023-04-15T06:07:26;4.20;;;3.10;;
1467;SDS011;727;48.892;9.544;2023-04-15T06:09:52;4.03;;;3.63;;
1467;SDS011;727;48.892;9.544;2023-04-15T06:12:19;3.80;;;3.50;;
1467;SDS011;727;48.892;9.544;2023-04-15T06:14:46;3.85;;;3.42;;
1467;SDS011;727;48.892;9.544;2023-04-15T06:17:14;4.93;;;4.55;;
1467;SDS011;727;48.892;9.544;2023-04-15T06:19:42;4.40;;;3.50;;
1467;SDS011;727;48.892;9.544;2023-04-15T06:22:09;5.50;;;4.25;;
1467;SDS011;727;48.892;9.544;2023-04-15T06:24:36;6.05;;;4.45;;
1467;SDS011;727;48.892;9.544;2023-04-15T06:27:03;4.78;;;4.30;;
1467;SDS011;727;48.892;9.544;2023-04-15T06:29:29;4.43;;;4.13;;
1467;SDS011;727;48.892;9.544;2023-04-15T06:31:56;4.15;;;3.08;;
1467;SDS011;727;48.892;9.544;2023-04-15T06:34:24;7.13;;;3.95;;
1467;SDS011;727;48.892;9.544;2023-04-15T06:36:51;3.30;;;3.00;;
1467;SDS011;727;48.892;9.544;2023-04-15T06:39:18;4.57;;;3.83;;
1467;SDS011;727;48.892;9.544;2023-04-15T06:41:45;8.25;;;4.68;;
1467;SDS011;727;48.892;9.544;2023-04-15T06:44:12;3.92;;;3.63;;
1467;SDS011;727;48.892;9.544;2023-04-15T06:46:39;4.30;;;3.90;;
1467;SDS011;727;48.892;9.544;2023-04-15T06:49:05;6.05;;;4.00;;
1467;SDS011;727;48.892;9.544;2023-04-15T06:51:34;6.72;;;5.20;;
1467;SDS011;727;48.892;9.544;2023-04-15T06:54:01;6.97;;;4.68;;
1467;SDS011;727;48.892;9.544;2023-04-15T06:56:30;5.53;;;4.93;;
1467;SDS011;727;48.892;9.544;2023-04-15T06:58:56;6.63;;;4.88;;
1467;SDS011;727;48.892;9.544;2023-04-15T07:01:23;6.30;;;5.70;;
1467;SDS011;727;48.892;9.544;2023-04-15T07:03:50;10.45;;;6.30;;
1467;SDS011;727;48.892;9.544;2023-04-15T07:06:17;6.95;;;5.90;;
1467;SDS011;727;48.892;9.544;2023-04-15T07:08:45;5.47;;;4.93;;
1467;SDS011;727;48.892;9.544;2023-04-15T07:11:14;4.63;;;4.22;;
1467;SDS011;727;48.892;9.544;2023-04-15T07:13:41;4.10;;;3.75;;
1467;SDS011;727;48.892;9.544;2023-04-15T07:16:08;5.50;;;5.00;;
1467;SDS011;727;48.892;9.544;2023-04-15T07:18:35;5.45;;;4.65;;
1467;SDS011;727;48.892;9.544;2023-04-15T07:21:01;12.45;;;5.38;;
1467;SDS011;727;48.892;9.544;2023-04-15T07:23:31;5.50;;;5.00;;
1467;SDS011;727;48.892;9.544;2023-04-15T07:25:59;7.20;;;5.03;;
1467;SDS011;727;48.892;9.544;2023-04-15T07:28:26;6.60;;;4.75;;
1467;SDS011;727;48.892;9.544;2023-04-15T07:30:56;5.78;;;4.20;;
1467;SDS011;727;48.892;9.544;2023-04-15T07:33:22;8.65;;;4.13;;
1467;SDS011;727;48.892;9.544;2023-04-15T07:35:52;7.75;;;4.35;;
1467;SDS011;727;48.892;9.544;2023-04-15T07:38:19;6.50;;;4.35;;
1467;SDS011;727;48.892;9.544;2023-04-15T07:40:47;7.65;;;4.32;;
1467;SDS011;727;48.892;9.544;2023-04-15T07:43:17;8.05;;;4.20;;
1467;SDS011;727;48.892;9.544;2023-04-15T07:45:46;4.45;;;4.05;;
1467;SDS011;727;48.892;9.544;2023-04-15T07:48:13;6.57;;;4.47;;
1467;SDS011;727;48.892;9.544;2023-04-15T07:50:45;5.23;;;4.13;;
1467;SDS011;727;48.892;9.544;2023-04-15T07:53:12;4.80;;;4.23;;
1467;SDS011;727;48.892;9.544;2023-04-15T07:55:39;6.50;;;3.90;;
1467;SDS011;727;48.892;9.544;2023-04-15T07:58:06;6.50;;;4.43;;
1467;SDS011;727;48.892;9.544;2023-04-15T08:00:34;6.80;;;4.60;;
1467;SDS011;727;48.892;9.544;2023-04-15T08:03:04;8.80;;;4.47;;
1467;SDS011;727;48.892;9.544;2023-04-15T08:05:33;8.27;;;3.60;;
1467;SDS011;727;48.892;9.544;2023-04-15T08:08:00;7.53;;;4.50;;
1467;SDS011;727;48.892;9.544;2023-04-15T08:10:28;5.37;;;4.00;;
1467;SDS011;727;48.892;9.544;2023-04-15T08:12:55;5.37;;;4.00;;
1467;SDS011;727;48.892;9.544;2023-04-15T08:15:22;5.63;;;4.13;;
1467;SDS011;727;48.892;9.544;2023-04-15T08:17:50;6.10;;;4.33;;
1467;SDS011;727;48.892;9.544;2023-04-15T08:20:19;4.53;;;4.10;;
1467;SDS011;727;48.892;9.544;2023-04-15T08:22:48;5.67;;;3.80;;
1467;SDS011;727;48.892;9.544;2023-04-15T08:25:16;5.07;;;4.53;;
1467;SDS011;727;48.892;9.544;2023-04-15T08:27:42;4.40;;;3.63;;
1467;SDS011;727;48.892;9.544;2023-04-15T08:30:11;5.43;;;4.93;;
1467;SDS011;727;48.892;9.544;2023-04-15T08:32:38;10.93;;;4.83;;
1467;SDS011;727;48.892;9.544;2023-04-15T08:35:06;6.63;;;5.10;;
1467;SDS011;727;48.892;9.544;2023-04-15T08:37:36;5.93;;;4.23;;
1467;SDS011;727;48.892;9.544;2023-04-15T08:40:03;4.07;;;3.37;;
1467;SDS011;727;48.892;9.544;2023-04-15T08:42:31;6.03;;;4.00;;
1467;SDS011;727;48.892;9.544;2023-04-15T08:45:03;5.13;;;4.17;;
1467;SDS011;727;48.892;9.544;2023-04-15T08:47:30;4.47;;;3.90;;
1467;SDS011;727;48.892;9.544;2023-04-15T08:49:58;4.63;;;3.30;;
1467;SDS011;727;48.892;9.544;2023-04-15T08:52:29;4.27;;;3.87;;
1467;SDS011;727;48.892;9.544;2023-04-15T08:54:57;6.43;;;5.67;;
1467;SDS011;727;48.892;9.544;2023-04-15T08:57:25;4.50;;;4.10;;
1467;SDS011;727;48.892;9.544;2023-04-15T08:59:52;5.20;;;4.30;;
1467;SDS011;727;48.892;9.544;2023-04-15T09:02:21;3.37;;;2.77;;
1467;SDS011;727;48.892;9.544;2023-04-15T09:04:49;4.40;;;3.30;;
1467;SDS011;727;48.892;9.544;2023-04-15T09:07:16;5.57;;;3.97;;
1467;SDS011;727;48.892;9.544;2023-04-15T09:09:44;4.77;;;3.77;;
1467;SDS011;727;48.892;9.544;2023-04-15T09:12:11;4.00;;;3.60;;
1467;SDS011;727;48.892;9.544;2023-04-15T09:14:38;6.13;;;2.90;;
1467;SDS011;727;48.892;9.544;2023-04-15T09:17:07;5.97;;;3.10;;
1467;SDS011;727;48.892;9.544;2023-04-15T09:19:35;4.20;;;2.87;;
1467;SDS011;727;48.892;9.544;2023-04-15T09:22:03;3.00;;;2.70;;
1467;SDS011;727;48.892;9.544;2023-04-15T09:24:34;5.07;;;3.50;;
1467;SDS011;727;48.892;9.544;2023-04-15T09:27:04;4.17;;;3.17;;
1467;SDS011;727;48.892;9.544;2023-04-15T09:29:32;6.27;;;3.47;;
1467;SDS011;727;48.892;9.544;2023-04-15T09:32:10;3.17;;;2.87;;
1467;SDS011;727;48.892;9.544;2023-04-15T09:34:38;3.70;;;3.40;;
1467;SDS011;727;48.892;9.544;2023-04-15T09:37:05;3.53;;;3.23;;
1467;SDS011;727;48.892;9.544;2023-04-15T09:39:44;3.57;;;3.27;;
1467;SDS011;727;48.892;9.544;2023-04-15T09:42:13;6.00;;;3.30;;
1467;SDS011;727;48.892;9.544;2023-04-15T09:44:41;6.13;;;3.70;;
1467;SDS011;727;48.892;9.544;2023-04-15T09:47:08;3.73;;;3.43;;
1467;SDS011;727;48.892;9.544;2023-04-15T09:49:35;3.47;;;3.17;;
1467;SDS011;727;48.892;9.544;2023-04-15T09:52:02;3.97;;;3.67;;
1467;SDS011;727;48.892;9.544;2023-04-15T09:54:33;3.80;;;3.50;;
1467;SDS011;727;48.892;9.544;2023-04-15T09:57:04;5.87;;;3.97;;
1467;SDS011;727;48.892;9.544;2023-04-15T09:59:32;7.23;;;4.03;;
1467;SDS011;727;48.892;9.544;2023-04-15T10:02:00;5.87;;;3.67;;
1467;SDS011;727;48.892;9.544;2023-04-15T10:04:29;6.90;;;3.40;;
1467;SDS011;727;48.892;9.544;2023-04-15T10:07:00;5.40;;;3.90;;
1467;SDS011;727;48.892;9.544;2023-04-15T10:09:30;4.80;;;3.73;;
1467;SDS011;727;48.892;9.544;2023-04-15T10:11:58;7.10;;;4.00;;
1467;SDS011;727;48.892;9.544;2023-04-15T10:14:25;10.60;;;4.10;;
1467;SDS011;727;48.892;9.544;2023-04-15T10:16:56;4.20;;;3.43;;
1467;SDS011;727;48.892;9.544;2023-04-15T10:19:27;3.63;;;3.20;;
1467;SDS011;727;48.892;9.544;2023-04-15T10:21:56;3.90;;;3.10;;
1467;SDS011;727;48.892;9.544;2023-04-15T10:24:24;5.70;;;4.77;;
1467;SDS011;727;48.892;9.544;2023-04-15T10:26:51;4.27;;;3.90;;
1467;SDS011;727;48.892;9.544;2023-04-15T10:29:19;7.60;;;5.90;;
1467;SDS011;727;48.892;9.544;2023-04-15T10:31:46;5.00;;;3.60;;
1467;SDS011;727;48.892;9.544;2023-04-15T10:34:15;6.77;;;4.33;;
1467;SDS011;727;48.892;9.544;2023-04-15T10:36:43;10.10;;;4.73;;
1467;SDS011;727;48.892;9.544;2023-04-15T10:42:08;5.10;;;4.40;;
1467;SDS011;727;48.892;9.544;2023-04-15T10:44:36;5.20;;;4.03;;
1467;SDS011;727;48.892;9.544;2023-04-15T10:47:06;4.80;;;3.50;;
1467;SDS011;727;48.892;9.544;2023-04-15T10:49:43;5.30;;;4.77;;
1467;SDS011;727;48.892;9.544;2023-04-15T10:52:11;10.17;;;5.00;;
1467;SDS011;727;48.892;9.544;2023-04-15T10:54:40;6.40;;;4.20;;
1467;SDS011;727;48.892;9.544;2023-04-15T10:57:08;4.33;;;3.93;;
1467;SDS011;727;48.892;9.544;2023-04-15T11:02:40;5.30;;;4.80;;
1467;SDS011;727;48.892;9.544;2023-04-15T11:05:10;4.63;;;4.23;;
1467;SDS011;727;48.892;9.544;2023-04-15T11:07:48;7.50;;;5.13;;
1467;SDS011;727;48.892;9.544;2023-04-15T11:13:20;4.73;;;4.33;;
1467;SDS011;727;48.892;9.544;2023-04-15T11:15:49;5.07;;;4.57;;
1467;SDS011;727;48.892;9.544;2023-04-15T11:18:21;6.13;;;4.73;;
1467;SDS011;727;48.892;9.544;2023-04-15T11:20:50;6.20;;;5.60;;
1467;SDS011;727;48.892;9.544;2023-04-15T11:23:26;6.27;;;4.33;;
1467;SDS011;727;48.892;9.544;2023-04-15T11:25:56;4.30;;;3.90;;
1467;SDS011;727;48.892;9.544;2023-04-15T11:28:24;7.30;;;5.13;;
1467;SDS011;727;48.892;9.544;2023-04-15T11:30:52;6.40;;;5.07;;
1467;SDS011;727;48.892;9.544;2023-04-15T11:33:19;4.17;;;3.83;;
1467;SDS011;727;48.892;9.544;2023-04-15T11:35:46;5.20;;;4.30;;
1467;SDS011;727;48.892;9.544;2023-04-15T11:38:15;9.23;;;5.00;;
1467;SDS011;727;48.892;9.544;2023-04-15T11:40:42;7.27;;;5.30;;
1467;SDS011;727;48.892;9.544;2023-04-15T11:43:10;5.17;;;4.23;;
1467;SDS011;727;48.892;9.544;2023-04-15T11:45:47;6.03;;;5.00;;
1467;SDS011;727;48.892;9.544;2023-04-15T11:48:15;7.10;;;5.13;;
1467;SDS011;727;48.892;9.544;2023-04-15T11:50:42;5.90;;;4.17;;
1467;SDS011;727;48.892;9.544;2023-04-15T11:53:10;6.47;;;4.40;;
1467;SDS011;727;48.892;9.544;2023-04-15T11:55:43;6.97;;;4.17;;
1467;SDS011;727;48.892;9.544;2023-04-15T11:58:11;4.93;;;4.43;;
1467;SDS011;727;48.892;9.544;2023-04-15T12:00:40;5.00;;;4.60;;
1467;SDS011;727;48.892;9.544;2023-04-15T12:03:12;5.57;;;3.90;;
1467;SDS011;727;48.892;9.544;2023-04-15T12:08:57;5.57;;;4.10;;
1467;SDS011;727;48.892;9.544;2023-04-15T12:11:31;4.80;;;3.60;;
1467;SDS011;727;48.892;9.544;2023-04-15T12:16:53;9.83;;;4.00;;
1467;SDS011;727;48.892;9.544;2023-04-15T12:19:23;5.33;;;3.07;;
1467;SDS011;727;48.892;9.544;2023-04-15T12:21:52;6.40;;;2.80;;
1467;SDS011;727;48.892;9.544;2023-04-15T12:24:22;4.63;;;2.50;;
1467;SDS011;727;48.892;9.544;2023-04-15T12:26:51;7.33;;;3.10;;
1467;SDS011;727;48.892;9.544;2023-04-15T12:29:24;5.00;;;3.07;;
1467;SDS011;727;48.892;9.544;2023-04-15T12:31:53;4.00;;;3.43;;
1467;SDS011;727;48.892;9.544;2023-04-15T12:34:24;8.23;;;3.77;;
1467;SDS011;727;48.892;9.544;2023-04-15T12:36:53;5.07;;;4.00;;
1467;SDS011;727;48.892;9.544;2023-04-15T12:39:21;5.90;;;3.70;;
1467;SDS011;727;48.892;9.544;2023-04-15T12:41:49;5.50;;;4.03;;
1467;SDS011;727;48.892;9.544;2023-04-15T12:44:17;10.63;;;4.90;;
1467;SDS011;727;48.892;9.544;2023-04-15T12:46:44;6.43;;;4.90;;
1467;SDS011;727;48.892;9.544;2023-04-15T12:49:11;6.07;;;4.00;;
1467;SDS011;727;48.892;9.544;2023-04-15T12:51:40;7.73;;;3.90;;
1467;SDS011;727;48.892;9.544;2023-04-15T12:54:07;4.43;;;3.90;;
1467;SDS011;727;48.892;9.544;2023-04-15T12:56:33;4.90;;;3.63;;
1467;SDS011;727;48.892;9.544;2023-04-15T12:59:02;4.77;;;3.73;;
1467;SDS011;727;48.892;9.544;2023-04-15T13:01:28;6.47;;;3.67;;
1467;SDS011;727;48.892;9.544;2023-04-15T13:03:55;5.10;;;3.60;;
1467;SDS011;727;48.892;9.544;2023-04-15T13:06:22;4.20;;;3.20;;
1467;SDS011;727;48.892;9.544;2023-04-15T13:08:49;2.50;;;2.30;;
1467;SDS011;727;48.892;9.544;2023-04-15T13:11:18;2.70;;;2.30;;
1467;SDS011;727;48.892;9.544;2023-04-15T13:13:45;4.73;;;2.80;;
1467;SDS011;727;48.892;9.544;2023-04-15T13:16:18;3.17;;;2.50;;
1467;SDS011;727;48.892;9.544;2023-04-15T13:18:45;2.37;;;2.17;;
1467;SDS011;727;48.892;9.544;2023-04-15T13:21:13;3.80;;;2.30;;
1467;SDS011;727;48.892;9.544;2023-04-15T13:23:40;2.73;;;2.07;;
1467;SDS011;727;48.892;9.544;2023-04-15T13:26:07;3.73;;;2.10;;
1467;SDS011;727;48.892;9.544;2023-04-15T13:28:34;13.53;;;2.90;;
1467;SDS011;727;48.892;9.544;2023-04-15T13:31:01;3.70;;;3.40;;
1467;SDS011;727;48.892;9.544;2023-04-15T13:33:30;13.60;;;3.27;;
1467;SDS011;727;48.892;9.544;2023-04-15T13:35:57;3.40;;;2.10;;
1467;SDS011;727;48.892;9.544;2023-04-15T13:38:25;3.43;;;1.70;;
1467;SDS011;727;48.892;9.544;2023-04-15T13:40:52;5.40;;;2.23;;
1467;SDS011;727;48.892;9.544;2023-04-15T13:43:19;2.10;;;1.50;;
1467;SDS011;727;48.892;9.544;2023-04-15T13:45:46;9.63;;;2.40;;
1467;SDS011;727;48.892;9.544;2023-04-15T13:48:13;4.63;;;1.67;;
1467;SDS011;727;48.892;9.544;2023-04-15T13:50:43;3.13;;;1.97;;
1467;SDS011;727;48.892;9.544;2023-04-15T13:53:10;2.50;;;1.40;;
1467;SDS011;727;48.892;9.544;2023-04-15T13:55:37;1.17;;;1.07;;
1467;SDS011;727;48.892;9.544;2023-04-15T13:58:06;4.77;;;1.87;;
1467;SDS011;727;48.892;9.544;2023-04-15T14:00:33;2.93;;;1.37;;
1467;SDS011;727;48.892;9.544;2023-04-15T14:03:00;2.03;;;1.60;;
1467;SDS011;727;48.892;9.544;2023-04-15T14:05:26;2.90;;;1.63;;
1467;SDS011;727;48.892;9.544;2023-04-15T14:07:55;1.97;;;1.87;;
1467;SDS011;727;48.892;9.544;2023-04-15T14:10:22;1.60;;;1.43;;
1467;SDS011;727;48.892;9.544;2023-04-15T14:12:48;3.20;;;1.33;;
1467;SDS011;727;48.892;9.544;2023-04-15T14:15:15;1.33;;;1.23;;
1467;SDS011;727;48.892;9.544;2023-04-15T14:17:42;3.13;;;1.33;;
1467;SDS011;727;48.892;9.544;2023-04-15T14:20:12;1.43;;;1.33;;
1467;SDS011;727;48.892;9.544;2023-04-15T14:22:39;1.63;;;1.43;;
1467;SDS011;727;48.892;9.544;2023-04-15T14:25:08;2.63;;;2.43;;
1467;SDS011;727;48.892;9.544;2023-04-15T14:27:35;5.37;;;1.87;;
1467;SDS011;727;48.892;9.544;2023-04-15T14:30:04;1.80;;;1.20;;
1467;SDS011;727;48.892;9.544;2023-04-15T14:32:35;2.40;;;1.30;;
1467;SDS011;727;48.892;9.544;2023-04-15T14:35:01;1.60;;;1.50;;
1467;SDS011;727;48.892;9.544;2023-04-15T14:37:30;1.60;;;1.47;;
1467;SDS011;727;48.892;9.544;2023-04-15T14:39:58;1.80;;;1.43;;
1467;SDS011;727;48.892;9.544;2023-04-15T14:42:26;2.27;;;2.17;;
1467;SDS011;727;48.892;9.544;2023-04-15T14:44:53;1.90;;;1.70;;
1467;SDS011;727;48.892;9.544;2023-04-15T14:47:22;1.47;;;1.37;;
1467;SDS011;727;48.892;9.544;2023-04-15T14:49:52;4.00;;;1.23;;
1467;SDS011;727;48.892;9.544;2023-04-15T14:52:19;1.90;;;1.27;;
1467;SDS011;727;48.892;9.544;2023-04-15T14:54:45;3.73;;;3.43;;
1467;SDS011;727;48.892;9.544;2023-04-15T14:57:12;1.70;;;1.60;;
1467;SDS011;727;48.892;9.544;2023-04-15T14:59:40;3.13;;;2.00;;
1467;SDS011;727;48.892;9.544;2023-04-15T15:02:10;1.97;;;1.87;;
1467;SDS011;727;48.892;9.544;2023-04-15T15:04:38;4.40;;;1.70;;
1467;SDS011;727;48.892;9.544;2023-04-15T15:07:05;1.17;;;1.10;;
1467;SDS011;727;48.892;9.544;2023-04-15T15:09:33;1.83;;;1.73;;
1467;SDS011;727;48.892;9.544;2023-04-15T15:12:00;2.60;;;1.53;;
1467;SDS011;727;48.892;9.544;2023-04-15T15:14:28;1.67;;;1.57;;
1467;SDS011;727;48.892;9.544;2023-04-15T15:16:57;2.20;;;1.57;;
1467;SDS011;727;48.892;9.544;2023-04-15T15:19:24;1.40;;;1.30;;
1467;SDS011;727;48.892;9.544;2023-04-15T15:21:51;1.57;;;1.33;;
1467;SDS011;727;48.892;9.544;2023-04-15T15:24:17;1.87;;;1.67;;
1467;SDS011;727;48.892;9.544;2023-04-15T15:26:44;1.35;;;1.25;;
1467;SDS011;727;48.892;9.544;2023-04-15T15:29:11;3.20;;;1.53;;
1467;SDS011;727;48.892;9.544;2023-04-15T15:31:38;2.35;;;1.55;;
1467;SDS011;727;48.892;9.544;2023-04-15T15:34:06;4.40;;;3.05;;
1467;SDS011;727;48.892;9.544;2023-04-15T15:36:33;3.25;;;2.92;;
1467;SDS011;727;48.892;9.544;2023-04-15T15:39:00;3.67;;;2.63;;
1467;SDS011;727;48.892;9.544;2023-04-15T15:41:26;2.97;;;2.50;;
1467;SDS011;727;48.892;9.544;2023-04-15T15:43:53;2.55;;;2.35;;
1467;SDS011;727;48.892;9.544;2023-04-15T15:46:20;3.45;;;2.38;;
1467;SDS011;727;48.892;9.544;2023-04-15T15:48:48;4.28;;;3.70;;
1467;SDS011;727;48.892;9.544;2023-04-15T15:51:16;3.40;;;3.15;;